Terminal Aerodrome Forecast
Issued by NWS

Home | Current Version | Previous Version | Text Only | Print | Product List | Glossary On
Versions: 1 2 3 4 5 6 7 8 9 10 11 12 13 14 15 16 17 18 19 20 21 22 23 24 25 26 27 28
000
FTUS43 KILX 201100
TAFCMI
TAF
KCMI 201140Z 2012/2112 14003KT 4SM BR SCT015 OVC045
     FM201600 16005KT P6SM SCT020 BKN045
     FM210300 15006KT P6SM BKN020 OVC045=

USA.gov is the U.S. government's official web portal to all federal, state and local government web resources and services.